MMPB/PBC METAR and TAF weather

Enter ICAO airport designator
Station Type Date Time Source
MMPB METAR 2020/04/05 14:47 UTC NOAA

MMPB 051447Z 01006KT 8SM SCT230 18/08 A3030 RMK 8/008 HZY


Station Type Date Time Source
MMPB Decoded METAR 2020/04/05 14:47 UTC NOAA

Puebla, Pue., Mexico (MMPB) 19-03N 098-10W
Apr 05, 2020 - 10:47 AM EDT / 2020.04.05 1447 UTC
Wind: from the N (010 degrees) at 7 MPH (6 KT):0
Visibility: 8 mile(s):0
Sky conditions: partly cloudy
Temperature: 64 F (18 C)
Dew Point: 46 F (8 C)
Relative Humidity: 51%
Pressure (altimeter): 30.3 in. Hg (1026 hPa)
ob: MMPB 051447Z 01006KT 8SM SCT230 18/08 A3030 RMK 8/008 HZY
cycle: 15

Station Type Date Time Source
MMPB TAF 2020/04/05 06:30 UTC NOAA

TAF MMPB 050429Z 0506/0606 24010KT P6SM SCT020CB BKN080
TEMPO 0506/0508 4SM TSRA BKN020CB
FM051000 00000KT 3SM HZ SCT020 BKN080
TEMPO 0511/0515 2SM BR OVC015
FM051600 00000KT 4SM BR BKN015
FM051800 04010KT P6SM SCT020 BKN080 BKN250
TEMPO 0522/0602 4SM RA OVC020CB

Example: see airport list